Time;durP1;ratioP1;P1;durP2;ratioP2;P2;SDS_P1;SDS_P2;PMS_P1;PMS_P2;Temp;Humidity;BMP_temperature;BMP_pressure;BME280_temperature;BME280_humidity;BME280_pressure;Samples;Min_cycle;Max_cycle;Signal;HPM_P1;HPM_P2
2023/01/28 00:00:05;;;;;;;12.60;3.30;;;;;;;6.12;49.79;102384.00;5071438;27;97306;-70
2023/01/28 00:02:32;;;;;;;8.57;2.92;;;;;;;6.08;49.62;102383.13;5068085;27;99670;-70
2023/01/28 00:05:00;;;;;;;9.57;2.97;;;;;;;6.08;50.01;102382.25;5077239;27;97588;-70
2023/01/28 00:07:26;;;;;;;7.82;2.78;;;;;;;6.00;50.27;102380.44;5072485;27;96641;-71
2023/01/28 00:09:53;;;;;;;7.55;2.63;;;;;;;6.18;50.14;102381.44;5072283;27;96842;-70
2023/01/28 00:12:19;;;;;;;15.40;5.03;;;;;;;5.99;49.80;102376.03;5072027;27;98908;-70
2023/01/28 00:14:46;;;;;;;12.32;3.92;;;;;;;6.22;49.33;102391.13;5070883;27;98178;-71
2023/01/28 00:17:14;;;;;;;16.75;5.03;;;;;;;6.16;49.98;102383.19;5070193;27;97853;-70
2023/01/28 00:19:40;;;;;;;10.90;4.00;;;;;;;6.17;49.78;102377.09;5073099;27;96849;-70
2023/01/28 00:22:08;;;;;;;12.63;4.60;;;;;;;6.06;50.17;102378.72;5074202;27;98876;-70
2023/01/28 00:24:34;;;;;;;36.40;10.45;;;;;;;6.10;49.88;102381.41;5070942;27;99168;-70
2023/01/28 00:27:01;;;;;;;47.28;14.25;;;;;;;6.08;50.07;102385.75;5071171;27;97237;-71
2023/01/28 00:29:27;;;;;;;13.13;4.28;;;;;;;6.14;49.67;102390.16;5072602;27;97122;-70
2023/01/28 00:31:53;;;;;;;12.35;4.03;;;;;;;6.00;50.29;102392.66;5070250;27;100920;-70
2023/01/28 00:34:21;;;;;;;10.90;3.40;;;;;;;5.91;50.51;102390.81;5070348;27;97754;-70
2023/01/28 00:36:56;;;;;;;7.57;2.75;;;;;;;5.96;50.42;102383.91;5071069;27;97089;-70
2023/01/28 00:39:24;;;;;;;56.10;13.93;;;;;;;6.03;49.85;102386.56;5072295;27;97103;-69
2023/01/28 00:41:51;;;;;;;40.92;10.77;;;;;;;5.87;50.30;102389.03;5071457;27;97851;-69
2023/01/28 00:44:18;;;;;;;13.35;3.47;;;;;;;5.93;50.35;102389.09;5070542;27;98920;-72
2023/01/28 00:46:44;;;;;;;33.45;8.60;;;;;;;6.00;50.03;102387.41;5070400;27;96738;-70
2023/01/28 00:49:11;;;;;;;10.70;3.65;;;;;;;5.92;49.97;102387.34;5071861;27;96855;-69
2023/01/28 00:51:37;;;;;;;7.95;2.67;;;;;;;5.79;50.12;102395.91;5071845;27;97735;-69
2023/01/28 00:54:04;;;;;;;12.80;3.55;;;;;;;5.89;50.47;102392.56;5071587;27;98852;-69
2023/01/28 00:56:32;;;;;;;18.80;5.40;;;;;;;5.79;50.63;102406.41;5072390;27;96729;-71
2023/01/28 00:58:59;;;;;;;9.93;3.00;;;;;;;5.80;50.29;102402.94;5071651;27;96963;-70
2023/01/28 01:01:27;;;;;;;15.63;4.38;;;;;;;5.92;50.31;102408.31;5066173;27;99080;-70
2023/01/28 01:04:01;;;;;;;11.43;4.07;;;;;;;5.81;50.48;102399.44;5069217;27;98792;-70
2023/01/28 01:06:28;;;;;;;8.18;3.28;;;;;;;5.74;50.41;102404.59;5071063;27;97339;-71
2023/01/28 01:08:55;;;;;;;9.23;2.63;;;;;;;5.50;50.80;102402.59;5071982;27;96921;-70
2023/01/28 01:11:21;;;;;;;8.57;2.40;;;;;;;5.73;50.47;102406.34;5071272;27;99418;-69
2023/01/28 01:13:53;;;;;;;9.32;2.90;;;;;;;5.87;50.59;102409.13;5070691;27;98820;-70
2023/01/28 01:16:21;;;;;;;11.52;3.00;;;;;;;5.67;50.66;102406.28;5070364;27;97104;-70
2023/01/28 01:18:47;;;;;;;12.10;3.42;;;;;;;5.61;51.72;102401.84;5069980;27;97218;-69
2023/01/28 01:21:16;;;;;;;7.97;3.22;;;;;;;5.49;51.74;102392.97;5070910;27;98886;-70
2023/01/28 01:23:45;;;;;;;10.13;3.30;;;;;;;5.11;53.08;102397.75;5069991;27;98819;-67
2023/01/28 01:26:11;;;;;;;8.52;3.08;;;;;;;5.29;52.94;102402.34;5074210;27;96926;-71
2023/01/28 01:28:38;;;;;;;7.60;2.75;;;;;;;5.18;52.14;102404.84;5074660;27;96841;-69
2023/01/28 01:31:07;;;;;;;5.10;2.65;;;;;;;5.44;52.36;102405.16;5073574;27;98871;-70
2023/01/28 01:33:34;;;;;;;8.00;2.70;;;;;;;5.49;52.48;102406.09;5068686;27;98216;-69
2023/01/28 01:36:01;;;;;;;11.23;3.13;;;;;;;5.42;52.06;102399.00;5069352;27;97281;-71
2023/01/28 01:38:28;;;;;;;9.05;3.05;;;;;;;5.50;52.55;102405.22;5068001;27;98487;-70
2023/01/28 01:40:57;;;;;;;5.38;2.42;;;;;;;5.84;50.94;102407.34;5064966;27;99022;-70
2023/01/28 01:43:24;;;;;;;9.07;2.58;;;;;;;5.99;50.29;102404.91;5072932;27;99006;-71
2023/01/28 01:45:53;;;;;;;8.95;3.25;;;;;;;6.30;49.36;102403.41;5073756;27;96811;-70
2023/01/28 01:48:25;;;;;;;9.00;2.97;;;;;;;6.44;48.92;102414.03;5071834;27;96801;-70
2023/01/28 01:50:55;;;;;;;6.05;2.40;;;;;;;6.36;48.62;102410.50;5074119;27;99422;-71
2023/01/28 01:53:24;;;;;;;4.68;1.90;;;;;;;6.48;48.58;102421.09;5072659;27;99409;-70
2023/01/28 01:55:55;;;;;;;8.48;2.38;;;;;;;6.51;48.28;102413.22;5070184;27;98612;-70
2023/01/28 01:58:26;;;;;;;6.63;2.58;;;;;;;6.54;48.18;102425.50;5075158;27;97232;-69
2023/01/28 02:00:52;;;;;;;5.75;2.22;;;;;;;6.68;47.76;102414.25;5073063;27;99872;-70
2023/01/28 02:03:27;;;;;;;6.97;3.17;;;;;;;6.61;47.84;102415.06;5074074;27;98757;-70
2023/01/28 02:05:54;;;;;;;7.38;2.53;;;;;;;6.70;47.53;102416.84;5071899;27;96739;-71
2023/01/28 02:08:21;;;;;;;4.00;2.17;;;;;;;6.73;47.49;102411.63;5072744;27;96913;-70
2023/01/28 02:10:50;;;;;;;7.55;2.50;;;;;;;6.78;47.25;102415.16;5073790;27;99424;-71
2023/01/28 02:13:19;;;;;;;7.35;2.72;;;;;;;6.74;47.39;102414.28;5067453;27;98230;-73
2023/01/28 02:15:46;;;;;;;7.38;2.75;;;;;;;6.85;47.23;102405.56;5065701;27;97256;-70
2023/01/28 02:18:12;;;;;;;6.35;2.33;;;;;;;6.69;47.50;102410.75;5073656;27;97166;-71
2023/01/28 02:21:03;;;;;;;4.03;2.10;;;;;;;6.84;47.22;102404.69;5072191;27;98148;-71
2023/01/28 02:23:50;;;;;;;5.70;2.58;;;;;;;6.84;47.15;102411.69;5072832;27;97742;-70
2023/01/28 02:26:25;;;;;;;;;;;;;;;6.99;46.95;102414.44;5070134;27;96946;-72
2023/01/28 02:28:57;;;;;;;9.23;2.45;;;;;;;6.95;46.92;102407.41;5071229;27;98839;-70
2023/01/28 02:31:30;;;;;;;8.93;2.90;;;;;;;6.95;47.18;102413.53;5070214;27;97842;-71
2023/01/28 02:34:02;;;;;;;8.48;2.60;;;;;;;6.75;47.73;102408.16;5070112;27;98802;-69
2023/01/28 02:36:38;;;;;;;6.13;2.70;;;;;;;6.93;46.74;102409.13;5064865;27;98637;-71
2023/01/28 02:39:09;;;;;;;5.68;2.30;;;;;;;6.73;47.22;102407.25;5059660;27;98971;-71
2023/01/28 02:41:40;;;;;;;8.80;2.72;;;;;;;6.94;46.69;102413.53;5071837;27;99852;-71
2023/01/28 02:44:08;;;;;;;5.20;2.33;;;;;;;6.91;46.79;102422.25;5069361;27;99881;-70
2023/01/28 02:49:26;;;;;;;8.75;2.30;;;;;;;6.80;46.84;102414.31;5072608;27;96776;-69
2023/01/28 02:52:13;;;;;;;9.50;2.30;;;;;;;6.95;46.57;102416.16;5073253;27;99064;-69
2023/01/28 02:54:50;;;;;;;6.88;2.13;;;;;;;7.01;46.21;102412.69;5069474;27;99329;-69
2023/01/28 02:57:30;;;;;;;6.38;1.85;;;;;;;7.06;45.96;102416.22;5073142;27;96719;-70
2023/01/28 03:00:04;;;;;;;4.68;1.75;;;;;;;7.00;46.04;102422.31;5071647;27;97609;-70
2023/01/28 03:02:37;;;;;;;7.97;2.60;;;;;;;7.05;46.32;102420.59;5071155;27;98921;-69
2023/01/28 03:05:09;;;;;;;8.27;2.60;;;;;;;6.94;45.92;102413.53;5061896;27;99198;-70
2023/01/28 03:07:38;;;;;;;9.48;2.05;;;;;;;7.07;46.09;102405.72;5073056;27;96711;-70
2023/01/28 03:10:08;;;;;;;8.15;2.33;;;;;;;6.96;46.15;102414.38;5070490;27;96998;-71
2023/01/28 03:37:53;;;;;;;3.45;1.52;;;;;;;6.92;45.32;102417.88;5064512;27;97128;-69
2023/01/28 03:40:20;;;;;;;6.20;2.63;;;;;;;7.01;45.05;102420.56;5068109;27;96824;-69
2023/01/28 03:42:47;;;;;;;7.43;1.60;;;;;;;6.86;44.86;102424.00;5068410;27;96885;-71
2023/01/28 03:45:14;;;;;;;4.95;1.90;;;;;;;6.96;44.89;102417.91;5070677;27;98237;-68
2023/01/28 03:47:43;;;;;;;5.07;1.90;;;;;;;7.03;44.64;102416.19;5071326;27;99137;-70
2023/01/28 03:50:10;;;;;;;6.50;1.60;;;;;;;6.93;44.46;102414.41;5072316;27;96715;-70
2023/01/28 03:52:36;;;;;;;5.10;2.03;;;;;;;6.85;44.80;102410.81;5071055;27;97183;-70
2023/01/28 03:55:12;;;;;;;3.47;1.60;;;;;;;7.07;44.58;102418.88;5071030;27;98342;-70
2023/01/28 03:57:38;;;;;;;4.20;1.80;;;;;;;6.99;44.59;102415.31;5072033;27;100932;-69
2023/01/28 04:00:06;;;;;;;4.22;2.00;;;;;;;6.97;44.75;102414.41;5071937;27;96726;-68
2023/01/28 04:02:34;;;;;;;6.68;1.98;;;;;;;6.92;44.30;102407.38;5072846;27;97193;-69
2023/01/28 04:05:11;;;;;;;3.65;1.58;;;;;;;6.95;44.02;102413.53;5071011;27;98921;-69
2023/01/28 04:07:38;;;;;;;5.20;1.70;;;;;;;6.96;44.08;102419.66;5071411;27;100687;-69
2023/01/28 04:10:07;;;;;;;4.85;1.75;;;;;;;6.96;43.24;102411.75;5072139;27;96651;-69
2023/01/28 04:12:36;;;;;;;4.43;1.50;;;;;;;7.05;42.34;102412.72;5071372;27;96741;-70
2023/01/28 04:15:13;;;;;;;4.70;1.40;;;;;;;6.83;42.14;102409.97;5060940;27;99055;-69
2023/01/28 04:17:40;;;;;;;3.08;1.20;;;;;;;6.76;42.04;102415.16;5058714;27;98708;-69
2023/01/28 04:20:11;;;;;;;7.50;2.15;;;;;;;7.03;42.04;102416.19;5071109;27;97163;-68
2023/01/28 04:22:37;;;;;;;3.55;1.42;;;;;;;6.98;41.61;102417.91;5067211;27;98806;-69
2023/01/28 04:25:04;;;;;;;3.13;1.42;;;;;;;7.17;41.87;102419.78;5070200;27;98162;-69
2023/01/28 04:27:30;;;;;;;2.25;1.38;;;;;;;6.99;41.95;102414.44;5068929;27;99382;-70
2023/01/28 04:29:56;;;;;;;5.93;1.85;;;;;;;7.05;41.65;102412.72;5069583;27;99535;-69
2023/01/28 04:32:23;;;;;;;4.93;1.55;;;;;;;6.97;41.61;102422.28;5065913;27;96797;-69
2023/01/28 04:34:49;;;;;;;6.07;1.98;;;;;;;7.06;41.57;102414.47;5066893;27;98948;-68
2023/01/28 04:37:17;;;;;;;3.38;1.73;;;;;;;7.28;41.49;102422.47;5066600;27;99108;-70
2023/01/28 04:39:44;;;;;;;5.22;1.45;;;;;;;7.27;41.17;102418.97;5061544;27;97701;-69
2023/01/28 04:42:10;;;;;;;2.40;1.55;;;;;;;7.18;41.38;102411.03;5059479;27;96816;-70
2023/01/28 04:44:36;;;;;;;5.55;1.70;;;;;;;7.19;41.35;102415.41;5063251;27;102701;-70
2023/01/28 04:47:03;;;;;;;4.70;2.33;;;;;;;7.31;41.05;102412.84;5067964;27;98812;-70
2023/01/28 04:49:29;;;;;;;2.47;1.20;;;;;;;7.26;40.76;102414.56;5066894;27;96767;-70
2023/01/28 04:51:56;;;;;;;4.65;1.63;;;;;;;7.37;41.09;102411.97;5069573;27;97047;-70
2023/01/28 04:54:23;;;;;;;5.97;1.60;;;;;;;7.30;41.34;102404.94;5070522;27;100628;-70
2023/01/28 04:56:50;;;;;;;3.05;1.50;;;;;;;7.25;40.84;102407.53;5065285;27;99065;-70
2023/01/28 04:59:17;;;;;;;3.92;1.40;;;;;;;7.41;40.90;102401.50;5065376;27;97197;-70
2023/01/28 05:01:43;;;;;;;4.88;1.35;;;;;;;7.26;40.72;102406.69;5062741;27;96849;-70
2023/01/28 05:04:09;;;;;;;3.25;2.05;;;;;;;7.34;41.18;102410.22;5066177;27;99220;-70
2023/01/28 05:06:36;;;;;;;2.88;1.70;;;;;;;7.37;40.53;102423.38;5067923;27;98842;-69
2023/01/28 05:09:02;;;;;;;3.38;1.67;;;;;;;7.27;40.81;102416.34;5069922;27;98725;-70
2023/01/28 05:11:30;;;;;;;4.10;1.65;;;;;;;7.17;41.28;102417.13;5069376;27;97852;-68
2023/01/28 05:13:57;;;;;;;4.53;1.75;;;;;;;7.35;41.15;102414.59;5073918;27;98992;-68
2023/01/28 05:16:23;;;;;;;3.35;1.45;;;;;;;7.14;41.12;102435.53;5058553;27;101443;-68
2023/01/28 05:18:50;;;;;;;6.60;2.00;;;;;;;6.94;41.10;102432.81;5067554;27;97409;-69
2023/01/28 05:21:17;;;;;;;2.90;1.30;;;;;;;7.22;40.82;102435.59;5066249;27;97027;-70
2023/01/28 05:23:46;;;;;;;3.85;1.48;;;;;;;7.49;40.48;102443.59;5071952;27;101927;-69
2023/01/28 05:26:13;;;;;;;4.72;1.60;;;;;;;7.43;40.34;102438.28;5070248;27;98881;-70
2023/01/28 05:28:40;;;;;;;1.80;1.10;;;;;;;7.41;40.31;102430.44;5073965;27;96776;-70
2023/01/28 05:31:07;;;;;;;3.45;1.35;;;;;;;7.15;40.82;102445.19;5066133;27;97535;-70
2023/01/28 05:33:34;;;;;;;3.40;1.70;;;;;;;7.39;40.57;102436.53;5065478;27;98963;-70
2023/01/28 05:36:00;;;;;;;2.50;1.40;;;;;;;7.39;40.52;102431.28;5068215;27;98825;-70
2023/01/28 05:38:26;;;;;;;2.97;1.77;;;;;;;7.37;40.24;102433.00;5068253;27;97756;-70
2023/01/28 05:40:53;;;;;;;6.47;1.90;;;;;;;7.41;40.55;102437.44;5065933;27;97316;-69
2023/01/28 05:43:19;;;;;;;6.70;2.58;;;;;;;7.27;40.89;102429.47;5072007;27;99596;-69
2023/01/28 05:45:48;;;;;;;5.78;2.20;;;;;;;7.52;40.28;102426.06;5066642;27;98806;-69
2023/01/28 05:48:15;;;;;;;9.98;4.70;;;;;;;7.53;40.27;102433.09;5069204;27;97746;-69
2023/01/28 05:50:41;;;;;;;11.35;5.57;;;;;;;7.45;40.19;102432.19;5069640;27;98674;-69
2023/01/28 05:53:08;;;;;;;10.45;5.85;;;;;;;7.33;40.15;102428.63;5070479;27;100180;-71
2023/01/28 05:55:35;;;;;;;11.52;6.03;;;;;;;7.18;40.44;102442.56;5068759;27;98798;-69
2023/01/28 05:58:01;;;;;;;10.55;5.40;;;;;;;7.38;40.28;102433.03;5074224;27;96787;-70
2023/01/28 06:00:28;;;;;;;13.73;6.72;;;;;;;7.41;39.87;102435.69;5073974;27;96815;-70
2023/01/28 06:02:55;;;;;;;14.25;7.30;;;;;;;7.42;39.70;102433.91;5077412;27;99054;-71
2023/01/28 06:05:22;;;;;;;16.48;7.32;;;;;;;7.37;39.75;102435.66;5072793;27;99043;-70
2023/01/28 06:07:48;;;;;;;19.52;8.10;;;;;;;7.41;39.82;102435.69;5072757;27;96779;-69
2023/01/28 06:10:16;;;;;;;16.75;7.18;;;;;;;7.52;40.09;102422.56;5074154;27;96856;-70
2023/01/28 06:12:43;;;;;;;15.82;7.90;;;;;;;7.28;40.27;102427.72;5073831;27;100751;-70
2023/01/28 06:15:10;;;;;;;13.95;6.28;;;;;;;7.30;40.00;102437.38;5072870;27;101175;-69
2023/01/28 06:17:37;;;;;;;14.77;6.95;;;;;;;7.46;39.82;102438.31;5073030;27;97035;-70
2023/01/28 06:20:07;;;;;;;13.27;6.63;;;;;;;7.29;39.69;102438.22;5072819;27;96783;-69
2023/01/28 06:22:33;;;;;;;12.55;7.28;;;;;;;7.03;40.60;102445.09;5072330;27;98699;-69
2023/01/28 06:25:00;;;;;;;13.20;7.10;;;;;;;7.15;40.75;102439.94;5072735;27;99349;-69
2023/01/28 06:27:26;;;;;;;15.23;7.25;;;;;;;7.46;40.39;102444.47;5072085;27;97223;-69
2023/01/28 06:29:53;;;;;;;15.27;7.20;;;;;;;7.56;40.46;102443.63;5067913;27;97307;-69
2023/01/28 06:32:19;;;;;;;15.35;7.30;;;;;;;7.37;40.11;102447.03;5069049;27;98879;-69
2023/01/28 06:34:46;;;;;;;12.18;6.07;;;;;;;7.28;40.30;102449.66;5071498;27;98864;-69
2023/01/28 06:37:15;;;;;;;12.07;6.10;;;;;;;7.44;40.07;102446.19;5071939;27;97211;-70
2023/01/28 06:39:41;;;;;;;6.72;3.63;;;;;;;7.48;39.40;102437.44;5067872;27;96855;-69
2023/01/28 06:42:08;;;;;;;9.40;4.63;;;;;;;7.49;39.71;102449.72;5065872;27;100893;-69
2023/01/28 06:44:34;;;;;;;9.63;3.67;;;;;;;7.52;39.56;102454.13;5067039;27;99093;-71
2023/01/28 06:47:01;;;;;;;9.48;3.00;;;;;;;7.19;39.86;102454.84;5063129;27;97321;-69
2023/01/28 06:49:27;;;;;;;4.13;2.40;;;;;;;7.54;39.84;102455.03;5068640;27;98787;-69
2023/01/28 06:51:54;;;;;;;5.97;2.67;;;;;;;7.64;39.08;102448.91;5069011;27;99399;-69
2023/01/28 06:54:22;;;;;;;5.40;2.55;;;;;;;7.45;39.15;102453.22;5065331;27;98664;-69
2023/01/28 06:56:48;;;;;;;6.50;2.90;;;;;;;7.49;39.25;102457.63;5067199;27;97212;-70
2023/01/28 06:59:15;;;;;;;5.88;2.70;;;;;;;7.54;39.38;102442.75;5059096;27;97162;-70
2023/01/28 07:01:41;;;;;;;4.25;2.45;;;;;;;7.49;39.56;102460.25;5070473;27;98833;-70
2023/01/28 07:04:08;;;;;;;4.90;2.95;;;;;;;7.56;39.64;102461.16;5072920;27;99309;-70
2023/01/28 07:06:37;;;;;;;7.20;2.60;;;;;;;7.62;39.19;102461.16;5067495;27;96761;-70
2023/01/28 07:09:04;;;;;;;4.82;2.50;;;;;;;7.56;39.57;102467.28;5071399;27;96813;-70
2023/01/28 07:11:31;;;;;;;4.60;2.47;;;;;;;7.19;39.38;102462.72;5064723;27;99202;-69
2023/01/28 07:13:58;;;;;;;6.00;2.15;;;;;;;7.35;39.65;102466.34;5062496;27;99083;-69
2023/01/28 07:16:24;;;;;;;7.05;2.47;;;;;;;7.26;38.96;102461.91;5068233;27;97748;-73
2023/01/28 07:18:50;;;;;;;5.30;2.40;;;;;;;7.26;39.56;102467.16;5067835;27;96827;-71
2023/01/28 07:21:17;;;;;;;5.93;2.00;;;;;;;7.38;39.20;102471.59;5067625;27;98359;-71
2023/01/28 07:23:44;;;;;;;4.68;2.47;;;;;;;7.61;39.37;102460.28;5069038;27;101094;-68
2023/01/28 07:26:10;;;;;;;4.28;1.98;;;;;;;7.48;39.13;102458.47;5070230;27;96973;-71
2023/01/28 07:28:38;;;;;;;6.47;2.03;;;;;;;7.60;38.96;102458.56;5070689;27;96806;-69
2023/01/28 07:31:05;;;;;;;3.28;2.00;;;;;;;7.58;39.22;102451.53;5071832;27;101786;-69
2023/01/28 07:33:31;;;;;;;3.30;1.00;;;;;;;7.45;38.52;102453.22;5072905;27;99175;-68
2023/01/28 07:35:57;;;;;;;1.98;1.17;;;;;;;7.34;38.78;102457.56;5072133;27;97077;-69
2023/01/28 07:38:24;;;;;;;2.75;1.27;;;;;;;7.35;38.87;102458.44;5073255;27;96664;-70
2023/01/28 07:40:50;;;;;;;4.60;1.30;;;;;;;7.47;38.90;102469.91;5065534;27;99094;-70
2023/01/28 07:43:17;;;;;;;3.50;1.98;;;;;;;7.41;38.73;102458.47;5072003;27;99563;-70
2023/01/28 07:45:44;;;;;;;9.25;2.90;;;;;;;7.49;38.96;102460.25;5070226;27;96932;-70
2023/01/28 07:48:12;;;;;;;6.38;2.03;;;;;;;7.31;39.16;102464.53;5073140;27;96810;-69
2023/01/28 07:50:39;;;;;;;5.53;2.10;;;;;;;7.67;39.12;102466.47;5072642;27;97929;-70
2023/01/28 07:53:09;;;;;;;3.83;1.70;;;;;;;7.62;39.02;102466.44;5072634;27;101395;-69
2023/01/28 07:55:36;;;;;;;6.07;1.52;;;;;;;7.63;38.99;102462.94;5064156;27;98508;-68
2023/01/28 07:58:05;;;;;;;2.10;1.13;;;;;;;7.74;38.47;102463.00;5072228;27;96857;-70
2023/01/28 08:00:33;;;;;;;4.20;1.50;;;;;;;7.81;37.98;102462.13;5069285;27;97674;-69
2023/01/28 08:03:02;;;;;;;3.40;1.48;;;;;;;7.87;38.09;102467.41;5061951;27;101251;-69
2023/01/28 08:05:37;;;;;;;3.50;1.45;;;;;;;7.77;38.03;102471.75;5065719;27;97551;-70
2023/01/28 08:08:04;;;;;;;4.88;1.20;;;;;;;7.81;37.91;102463.00;5066834;27;98986;-69
2023/01/28 08:10:31;;;;;;;5.30;1.08;;;;;;;7.86;37.71;102473.56;5070032;27;98887;-70
2023/01/28 08:12:58;;;;;;;2.40;1.27;;;;;;;7.83;37.62;102481.44;5064731;27;99531;-71
2023/01/28 08:15:26;;;;;;;1.65;1.27;;;;;;;7.89;37.46;102484.97;5068600;27;98637;-70
2023/01/28 08:17:54;;;;;;;3.88;0.98;;;;;;;7.99;37.53;102483.25;5070283;27;96818;-69
2023/01/28 08:20:22;;;;;;;3.10;1.80;;;;;;;8.18;37.25;102482.41;5065665;27;99597;-68
2023/01/28 08:22:49;;;;;;;2.42;1.20;;;;;;;8.09;37.60;102478.84;5069268;27;99241;-68
2023/01/28 08:25:16;;;;;;;4.85;1.80;;;;;;;8.26;37.43;102485.94;5068803;27;98543;-69
2023/01/28 08:27:42;;;;;;;3.50;1.20;;;;;;;8.13;37.43;102481.53;5067836;27;97007;-72
2023/01/28 08:30:10;;;;;;;3.83;1.00;;;;;;;8.22;36.74;102491.19;5070134;27;98955;-69
2023/01/28 08:32:36;;;;;;;4.22;1.42;;;;;;;8.11;36.95;102493.81;5070050;27;99230;-69
2023/01/28 08:35:03;;;;;;;2.63;1.20;;;;;;;7.85;37.19;102495.47;5072526;27;98345;-68
2023/01/28 08:37:31;;;;;;;9.15;1.85;;;;;;;8.10;37.42;102499.94;5074801;27;97017;-69
2023/01/28 08:39:58;;;;;;;4.78;1.25;;;;;;;8.07;37.17;102507.84;5071035;27;99532;-70
2023/01/28 08:42:24;;;;;;;2.83;1.30;;;;;;;7.98;37.17;102505.16;5056949;27;99243;-71
2023/01/28 08:44:51;;;;;;;7.55;1.50;;;;;;;8.05;37.20;102503.44;5054875;27;97653;-69
2023/01/28 08:47:17;;;;;;;4.18;1.70;;;;;;;7.80;37.38;102499.84;5059349;27;97724;-69
2023/01/28 08:49:44;;;;;;;3.78;1.73;;;;;;;8.05;36.90;102504.31;5058291;27;98981;-69
2023/01/28 08:52:10;;;;;;;3.25;1.65;;;;;;;7.98;37.45;102507.81;5057230;27;98997;-70
2023/01/28 08:54:38;;;;;;;8.70;1.50;;;;;;;8.16;37.13;102502.59;5060812;27;99343;-70
2023/01/28 08:57:05;;;;;;;4.28;1.83;;;;;;;7.96;37.05;102514.81;5058497;27;96984;-69
2023/01/28 08:59:31;;;;;;;4.60;1.58;;;;;;;7.87;37.37;102520.94;5071638;27;99687;-70
2023/01/28 09:01:58;;;;;;;2.10;1.30;;;;;;;8.14;36.87;102514.00;5063691;27;99031;-70
2023/01/28 09:04:24;;;;;;;6.00;1.52;;;;;;;8.16;36.95;102507.84;5056814;27;97623;-71
2023/01/28 09:06:51;;;;;;;3.90;1.27;;;;;;;8.25;36.65;102512.25;5062084;27;99601;-70
2023/01/28 09:09:17;;;;;;;9.15;1.80;;;;;;;8.31;37.15;102521.09;5059159;27;98919;-69
2023/01/28 09:11:48;;;;;;;1.95;0.93;;;;;;;8.33;36.50;102524.63;5062056;27;99339;-69
2023/01/28 09:14:14;;;;;;;5.10;1.13;;;;;;;8.48;36.72;102525.50;5060490;27;97248;-69
2023/01/28 09:16:41;;;;;;;3.35;1.08;;;;;;;8.48;36.22;102520.22;5056751;27;99417;-69
2023/01/28 09:19:07;;;;;;;1.73;1.15;;;;;;;8.47;36.13;102529.88;5062372;27;99278;-69
2023/01/28 09:21:34;;;;;;;7.20;1.60;;;;;;;8.60;36.34;102538.72;5058483;27;98923;-69
2023/01/28 09:24:00;;;;;;;2.58;1.17;;;;;;;8.37;36.15;102543.94;5058551;27;98732;-69
2023/01/28 09:26:26;;;;;;;2.42;1.00;;;;;;;8.57;36.45;102530.78;5070983;27;96786;-70
2023/01/28 09:28:54;;;;;;;2.03;0.60;;;;;;;8.51;35.79;102541.31;5059545;27;99264;-69
2023/01/28 09:31:22;;;;;;;3.47;1.00;;;;;;;8.52;35.92;102543.97;5062241;27;101254;-69
2023/01/28 09:33:55;;;;;;;3.35;1.30;;;;;;;8.42;35.87;102546.56;5067971;27;96964;-70
2023/01/28 09:36:22;;;;;;;1.38;0.60;;;;;;;8.48;36.00;102549.19;5062939;27;99938;-71
2023/01/28 09:38:48;;;;;;;2.60;0.68;;;;;;;8.37;36.22;102550.06;5063553;27;99239;-71
2023/01/28 09:41:26;;;;;;;3.63;1.00;;;;;;;8.23;36.57;102543.84;5060425;27;99256;-70
2023/01/28 09:44:06;;;;;;;2.92;0.70;;;;;;;8.61;36.18;102545.72;5058795;27;96913;-70
2023/01/28 09:46:36;;;;;;;3.75;0.60;;;;;;;8.31;35.85;102551.81;5057318;27;99097;-72
2023/01/28 09:49:15;;;;;;;4.28;0.70;;;;;;;8.11;36.40;102556.09;5059370;27;100221;-70
2023/01/28 09:51:44;;;;;;;1.95;0.60;;;;;;;8.47;36.47;102550.09;5059182;27;99264;-70
2023/01/28 09:54:21;;;;;;;4.35;0.40;;;;;;;8.48;35.93;102542.19;5055570;27;100718;-70
2023/01/28 09:56:49;;;;;;;;;;;;;;;8.52;35.35;102549.22;5063049;27;97488;-69
2023/01/28 09:59:19;;;;;;;3.08;0.75;;;;;;;8.63;35.56;102557.13;5070959;27;99286;-72
2023/01/28 10:01:54;;;;;;;1.25;0.60;;;;;;;8.49;35.52;102564.13;5062457;27;97735;-72
2023/01/28 10:04:47;;;;;;;4.50;0.60;;;;;;;8.47;35.93;102560.66;5055918;27;98868;-71
2023/01/28 10:10:56;;;;;;;3.65;0.40;;;;;;;8.39;35.87;102547.44;5055222;27;98697;-69
2023/01/28 10:13:36;;;;;;;0.73;0.43;;;;;;;8.48;35.75;102544.81;5060707;27;101178;-71
2023/01/28 10:16:15;;;;;;;2.00;0.38;;;;;;;8.31;35.86;102547.44;5059474;27;97176;-72
2023/01/28 10:18:46;;;;;;;1.20;0.60;;;;;;;8.37;36.13;102541.28;5066727;27;99232;-72
2023/01/28 10:21:18;;;;;;;6.25;0.80;;;;;;;8.48;35.85;102536.91;5062189;27;99107;-70
2023/01/28 10:23:54;;;;;;;1.20;0.40;;;;;;;8.63;35.68;102536.94;5064069;27;99305;-71
2023/01/28 10:26:24;;;;;;;3.55;1.27;;;;;;;8.39;36.40;102553.59;5074200;27;97127;-71
2023/01/28 10:28:55;;;;;;;3.95;1.50;;;;;;;8.28;35.76;102544.75;5056456;27;98969;-70
2023/01/28 10:31:30;;;;;;;3.65;1.13;;;;;;;8.58;36.15;102540.44;5060218;27;99586;-71
2023/01/28 10:33:56;;;;;;;1.48;0.50;;;;;;;8.79;35.54;102533.41;5062520;27;99071;-70
2023/01/28 10:36:23;;;;;;;2.42;0.60;;;;;;;8.75;35.11;102533.44;5064148;27;97662;-72
2023/01/28 10:38:51;;;;;;;1.70;0.60;;;;;;;8.67;35.60;102525.50;5059250;27;97913;-71
2023/01/28 10:41:22;;;;;;;4.38;0.70;;;;;;;8.43;35.93;102525.50;5060618;27;98914;-71
2023/01/28 10:43:50;;;;;;;4.88;1.08;;;;;;;8.71;35.63;102527.28;5059415;27;98916;-70
2023/01/28 10:46:20;;;;;;;2.50;0.93;;;;;;;8.87;35.58;102528.16;5070091;27;97884;-70
2023/01/28 10:48:57;;;;;;;1.48;0.88;;;;;;;8.93;35.51;102533.41;5055950;27;97231;-69
2023/01/28 10:51:35;;;;;;;3.35;1.15;;;;;;;8.91;36.08;102527.28;5057034;27;100616;-71
2023/01/28 10:54:01;;;;;;;5.50;1.27;;;;;;;8.91;35.75;102534.31;5047272;27;98754;-70
2023/01/28 10:56:30;;;;;;;7.30;1.10;;;;;;;8.84;35.42;102532.56;5051084;27;98881;-71
2023/01/28 10:59:00;;;;;;;2.05;0.85;;;;;;;8.74;35.95;102522.00;5051305;27;97687;-70
2023/01/28 11:01:39;;;;;;;1.70;0.70;;;;;;;8.72;35.86;102523.78;5056724;27;99425;-69
2023/01/28 11:04:16;;;;;;;3.17;1.10;;;;;;;8.63;36.51;102530.78;5063933;27;98720;-70
2023/01/28 11:06:52;;;;;;;2.55;1.00;;;;;;;8.28;36.72;102528.94;5056109;27;98550;-70
2023/01/28 11:09:24;;;;;;;8.93;2.23;;;;;;;8.53;36.60;102524.66;5066163;27;97174;-70
2023/01/28 11:11:50;;;;;;;6.65;2.83;;;;;;;8.63;36.45;102528.16;5064495;27;99081;-70
2023/01/28 11:14:21;;;;;;;4.50;0.95;;;;;;;8.61;35.99;102528.16;5076216;27;98110;-71
2023/01/28 11:16:49;;;;;;;2.80;1.25;;;;;;;8.10;36.86;102533.28;5064538;27;96766;-70
2023/01/28 11:19:22;;;;;;;1.95;0.95;;;;;;;7.78;38.53;102531.41;5073247;27;97376;-70
2023/01/28 11:21:52;;;;;;;2.30;0.80;;;;;;;8.01;38.70;102523.59;5075832;27;98186;-69
2023/01/28 11:24:22;;;;;;;2.40;1.00;;;;;;;8.04;38.90;102523.63;5066731;27;99315;-69
2023/01/28 11:26:50;;;;;;;2.45;0.73;;;;;;;7.63;39.60;102519.94;5073253;27;97005;-69
2023/01/28 11:29:27;;;;;;;1.30;0.73;;;;;;;7.99;39.59;102520.97;5073362;27;97343;-69
2023/01/28 11:31:54;;;;;;;3.28;0.88;;;;;;;8.09;39.90;102518.34;5076446;27;98859;-69
2023/01/28 11:34:26;;;;;;;2.60;0.77;;;;;;;7.35;40.93;102522.41;5064024;27;100846;-71
2023/01/28 11:36:54;;;;;;;2.40;0.68;;;;;;;7.49;41.35;102515.47;5068329;27;97339;-70
2023/01/28 11:39:24;;;;;;;2.67;0.95;;;;;;;7.46;41.55;102523.38;5072576;27;97383;-69
2023/01/28 11:41:52;;;;;;;4.75;1.80;;;;;;;8.13;40.79;102521.03;5071702;27;98757;-69
2023/01/28 11:44:21;;;;;;;3.45;1.50;;;;;;;7.87;41.54;102514.78;5073498;27;99555;-70
2023/01/28 11:47:00;;;;;;;3.20;0.80;;;;;;;7.17;43.34;102504.78;5071492;27;96783;-70
2023/01/28 11:49:42;;;;;;;3.95;1.10;;;;;;;7.35;43.46;102501.38;5080123;27;96854;-70
2023/01/28 11:52:19;;;;;;;8.75;3.50;;;;;;;7.71;42.38;102499.81;5073832;27;98117;-70
2023/01/28 11:54:59;;;;;;;6.10;2.70;;;;;;;7.95;41.80;102503.41;5072138;27;98755;-72
2023/01/28 11:57:33;;;;;;;2.53;1.20;;;;;;;7.71;41.96;102508.59;5073443;27;97484;-70
2023/01/28 12:00:18;;;;;;;4.55;1.25;;;;;;;7.68;42.41;102497.19;5061412;27;98314;-71
2023/01/28 12:02:53;;;;;;;2.20;0.93;;;;;;;6.68;44.69;102500.94;5068356;27;100583;-70
2023/01/28 12:05:53;;;;;;;3.67;1.10;;;;;;;6.73;45.53;102501.84;5065080;27;99046;-72
2023/01/28 12:08:23;;;;;;;4.20;0.90;;;;;;;6.79;45.54;102507.16;5064112;27;97560;-69
2023/01/28 12:11:12;;;;;;;2.88;1.38;;;;;;;6.77;45.75;102501.00;5071320;27;96802;-69